Time;durP1;ratioP1;P1;durP2;ratioP2;P2;SDS_P1;SDS_P2;PMS_P1;PMS_P2;Temp;Humidity;BMP_temperature;BMP_pressure;BME280_temperature;BME280_humidity;BME280_pressure;Samples;Min_cycle;Max_cycle;Signal;HPM_P1;HPM_P2
2021/12/08 00:01:10;;;;;;;5.85;3.10;;;;;;;4.07;100.00;99054.84;4899712;29;20486;-86
2021/12/08 00:03:35;;;;;;;7.97;2.97;;;;;;;4.15;100.00;99051.06;4899630;29;20032;-87
2021/12/08 00:06:03;;;;;;;6.78;3.13;;;;;;;3.81;100.00;98997.66;4869011;29;20091;-86
2021/12/08 00:08:30;;;;;;;7.70;2.97;;;;;;;4.27;100.00;99048.53;4884626;29;20055;-86
2021/12/08 00:13:28;;;;;;;7.68;2.80;;;;;;;4.13;100.00;99020.97;4899612;29;20043;-86
2021/12/08 00:15:56;;;;;;;4.33;2.67;;;;;;;4.35;100.00;99040.19;4899692;29;20219;-86
2021/12/08 00:18:26;;;;;;;7.57;3.10;;;;;;;4.21;100.00;99004.59;4916104;29;20427;-87
2021/12/08 00:20:56;;;;;;;7.97;2.90;;;;;;;4.40;100.00;99029.63;4899447;29;20038;-86
2021/12/08 00:23:23;;;;;;;5.82;2.70;;;;;;;4.04;100.00;98966.72;4899220;29;20119;-87
2021/12/08 00:25:49;;;;;;;5.47;2.78;;;;;;;4.12;100.00;98987.09;4899293;29;20035;-85
2021/12/08 00:28:14;;;;;;;8.85;2.63;;;;;;;4.42;100.00;99037.47;4899411;29;20032;-86
2021/12/08 00:30:44;;;;;;;5.25;2.80;;;;;;;4.53;100.00;99063.59;4899246;29;20075;-86
2021/12/08 00:33:10;;;;;;;4.85;2.70;;;;;;;4.59;100.00;99062.72;4916580;29;20099;-86
2021/12/08 00:35:40;;;;;;;7.30;2.60;;;;;;;4.55;100.00;99056.16;4898920;29;20119;-87
2021/12/08 00:38:09;;;;;;;5.50;2.80;;;;;;;4.57;100.00;99027.22;4899413;29;20099;-87
2021/12/08 00:40:35;;;;;;;4.78;2.60;;;;;;;4.39;100.00;99001.94;4883819;29;20039;-87
2021/12/08 00:43:02;;;;;;;5.75;2.33;;;;;;;4.62;100.00;99038.13;4899428;29;20036;-87
2021/12/08 00:45:29;;;;;;;7.78;2.70;;;;;;;4.64;100.00;99032.53;4916137;29;20035;-86
2021/12/08 00:47:55;;;;;;;6.22;2.45;;;;;;;4.62;100.00;99056.94;4899377;29;20028;-87
2021/12/08 00:50:25;;;;;;;6.63;2.90;;;;;;;4.47;100.00;99033.06;4916484;29;20039;-87
2021/12/08 00:52:51;;;;;;;9.10;2.60;;;;;;;4.58;100.00;99061.09;4898670;29;20068;-87
2021/12/08 00:55:18;;;;;;;5.93;2.40;;;;;;;4.59;100.00;99026.97;4883811;29;20389;-87
2021/12/08 00:57:44;;;;;;;5.10;2.13;;;;;;;4.79;100.00;99056.34;4899358;29;20046;-87
2021/12/08 01:00:18;;;;;;;5.55;2.50;;;;;;;4.60;100.00;99016.00;4899397;29;20043;-87
2021/12/08 01:02:44;;;;;;;4.97;2.13;;;;;;;4.82;100.00;99074.72;4899227;29;20028;-87
2021/12/08 01:05:13;;;;;;;5.30;2.30;;;;;;;4.49;100.00;99014.88;4916493;29;20039;-87
2021/12/08 01:07:39;;;;;;;3.08;1.95;;;;;;;4.62;100.00;99051.56;4918834;29;20039;-87
2021/12/08 01:10:07;;;;;;;3.50;2.03;;;;;;;4.42;100.00;99027.53;4902613;29;20530;-87
2021/12/08 01:12:33;;;;;;;5.53;2.50;;;;;;;4.58;100.00;99031.53;4902756;29;20047;-87
2021/12/08 01:14:59;;;;;;;5.43;2.42;;;;;;;4.82;100.00;99062.09;4887074;29;20036;-86
2021/12/08 01:17:27;;;;;;;3.75;2.20;;;;;;;4.92;100.00;99099.22;4887709;29;20130;-86
2021/12/08 01:19:53;;;;;;;6.88;2.90;;;;;;;4.79;100.00;99059.03;4902800;29;20027;-87
2021/12/08 01:22:18;;;;;;;4.68;2.13;;;;;;;4.67;100.00;99035.59;4902905;29;20127;-87
2021/12/08 01:24:44;;;;;;;8.00;2.72;;;;;;;5.00;100.00;99080.09;4902839;29;20043;-87
2021/12/08 01:27:09;;;;;;;6.85;2.78;;;;;;;4.65;100.00;99032.31;4902146;29;20038;-86
2021/12/08 01:29:35;;;;;;;4.85;2.50;;;;;;;5.00;100.00;99111.56;4887079;29;20040;-87
2021/12/08 01:32:01;;;;;;;6.47;2.47;;;;;;;4.65;100.00;99034.16;4887110;29;20091;-87
2021/12/08 01:34:26;;;;;;;6.72;2.55;;;;;;;5.02;100.00;99096.84;4887515;29;20036;-87
2021/12/08 01:36:52;;;;;;;6.43;2.50;;;;;;;4.74;100.00;99057.03;4886917;29;20043;-87
2021/12/08 01:39:17;;;;;;;10.80;2.92;;;;;;;5.05;100.00;99107.16;4886854;29;20374;-87
2021/12/08 01:41:44;;;;;;;9.35;3.35;;;;;;;4.35;100.00;99005.28;4886798;29;20033;-87
2021/12/08 01:46:54;;;;;;;8.23;3.45;;;;;;;4.68;100.00;99060.56;4905108;29;20051;-86
2021/12/08 01:49:23;;;;;;;7.72;2.97;;;;;;;5.06;100.00;99126.78;4902150;29;20389;-86
2021/12/08 01:51:49;;;;;;;6.35;3.03;;;;;;;4.87;100.00;99099.91;4867564;29;20487;-86
2021/12/08 01:54:15;;;;;;;8.20;3.08;;;;;;;4.78;100.00;99079.69;4883326;29;20438;-86
2021/12/08 01:56:44;;;;;;;10.05;3.10;;;;;;;4.67;100.00;99073.19;4900281;29;20092;-86
2021/12/08 01:59:10;;;;;;;11.55;3.00;;;;;;;4.93;100.00;99111.59;4898978;29;20037;-86
2021/12/08 02:01:38;;;;;;;11.05;3.10;;;;;;;5.00;100.00;99133.88;4898375;29;20058;-86
2021/12/08 02:04:06;;;;;;;8.07;2.63;;;;;;;4.63;100.00;99082.72;4899919;29;20474;-86
2021/12/08 02:06:35;;;;;;;11.23;2.50;;;;;;;5.02;100.00;99125.59;4883577;29;20051;-86
2021/12/08 02:09:01;;;;;;;8.80;3.03;;;;;;;4.90;100.00;99115.56;4900278;29;20037;-86
2021/12/08 02:11:26;;;;;;;9.23;2.90;;;;;;;5.03;100.00;99148.75;4899668;29;20081;-85
2021/12/08 02:13:59;;;;;;;9.07;3.22;;;;;;;5.00;100.00;99136.56;4898802;29;20042;-86
2021/12/08 02:16:24;;;;;;;9.35;2.60;;;;;;;4.73;100.00;99101.88;4898824;29;20040;-86
2021/12/08 02:18:52;;;;;;;6.72;2.55;;;;;;;5.03;100.00;99154.13;4897259;29;20041;-86
2021/12/08 02:21:24;;;;;;;8.60;2.60;;;;;;;4.96;100.00;99138.06;4898823;29;20036;-86
2021/12/08 02:23:50;;;;;;;;;;;;;;;5.05;100.00;99160.94;4900131;29;20068;-87
2021/12/08 02:26:16;;;;;;;7.35;2.50;;;;;;;4.52;100.00;99097.69;4899965;29;19966;-87
2021/12/08 02:28:43;;;;;;;11.52;3.00;;;;;;;4.72;100.00;99113.66;4882639;29;20033;-86
2021/12/08 02:31:13;;;;;;;10.57;2.88;;;;;;;4.69;100.00;99119.47;4899840;29;20474;-87
2021/12/08 02:47:52;;;;;;;8.48;2.67;;;;;;;4.59;100.00;99131.75;4899400;29;20068;-87
2021/12/08 02:50:38;;;;;;;11.25;2.90;;;;;;;4.76;100.00;99170.47;4898616;29;20029;-87
2021/12/08 02:53:06;;;;;;;10.80;2.95;;;;;;;4.32;100.00;99124.69;4912755;29;20056;-86
2021/12/08 02:55:32;;;;;;;10.48;2.60;;;;;;;4.36;100.00;99133.97;4885436;29;20043;-88
2021/12/08 02:58:01;;;;;;;7.75;2.65;;;;;;;4.44;100.00;99135.56;4918270;29;20038;-87
2021/12/08 03:00:32;;;;;;;8.95;2.50;;;;;;;4.68;100.00;99163.50;4900785;29;20548;-87
2021/12/08 03:03:00;;;;;;;10.20;2.83;;;;;;;4.83;100.00;99179.31;4901775;29;20032;-87
2021/12/08 03:05:27;;;;;;;8.82;2.40;;;;;;;4.44;100.00;99108.69;4901105;29;20055;-87
2021/12/08 03:07:53;;;;;;;7.85;2.60;;;;;;;4.84;100.00;99182.81;4900602;29;20024;-88
2021/12/08 03:10:24;;;;;;;11.82;2.88;;;;;;;4.90;100.00;99176.53;4885509;29;20084;-87
2021/12/08 03:12:50;;;;;;;10.18;2.50;;;;;;;4.58;100.00;99130.94;4900425;29;20478;-87
2021/12/08 03:15:16;;;;;;;9.60;2.42;;;;;;;4.99;100.00;99177.09;4917443;29;20028;-87
2021/12/08 03:17:42;;;;;;;10.88;2.90;;;;;;;4.82;100.00;99161.53;4900800;29;20042;-87
2021/12/08 03:20:11;;;;;;;11.10;2.70;;;;;;;4.85;100.00;99176.41;4917454;29;20486;-86
2021/12/08 03:22:42;;;;;;;11.20;2.58;;;;;;;4.76;100.00;99169.66;4917671;29;20071;-86
2021/12/08 03:25:19;;;;;;;6.28;2.33;;;;;;;4.97;100.00;99204.19;4900639;29;20052;-86
2021/12/08 03:28:02;;;;;;;7.38;2.38;;;;;;;4.33;100.00;99109.41;4900593;29;20032;-87
2021/12/08 03:30:34;;;;;;;7.72;2.20;;;;;;;4.88;100.00;99195.59;4886785;29;20063;-87
2021/12/08 03:33:00;;;;;;;13.38;2.22;;;;;;;4.84;100.00;99212.38;4900549;29;20408;-87
2021/12/08 03:35:26;;;;;;;8.77;2.65;;;;;;;4.69;100.00;99183.94;4900117;29;20482;-87
2021/12/08 03:37:52;;;;;;;10.27;2.30;;;;;;;4.51;99.58;99157.81;4884733;29;20080;-87
2021/12/08 03:40:26;;;;;;;6.65;1.80;;;;;;;4.63;99.80;99160.63;4900333;29;20135;-87
2021/12/08 03:42:54;;;;;;;8.48;2.30;;;;;;;4.56;99.25;99168.75;4899935;29;20071;-87
2021/12/08 03:45:29;;;;;;;7.68;2.42;;;;;;;4.49;99.46;99167.97;4900232;29;20028;-87
2021/12/08 03:48:02;;;;;;;9.60;2.17;;;;;;;4.68;98.85;99190.38;4916896;29;20028;-87
2021/12/08 03:50:31;;;;;;;12.93;1.98;;;;;;;4.68;98.63;99208.34;4900126;29;20031;-87
2021/12/08 03:52:57;;;;;;;5.75;2.22;;;;;;;4.27;98.51;99147.88;4896812;29;20084;-87
2021/12/08 03:55:23;;;;;;;9.50;2.28;;;;;;;4.63;97.84;99208.19;4896972;29;20458;-87
2021/12/08 03:57:48;;;;;;;7.65;2.42;;;;;;;4.45;98.35;99190.13;4897901;29;20051;-87
2021/12/08 04:00:20;;;;;;;8.15;1.98;;;;;;;4.35;98.64;99193.25;4865917;29;20043;-87
2021/12/08 04:02:47;;;;;;;10.73;2.25;;;;;;;4.22;98.10;99184.25;4896594;29;20092;-87
2021/12/08 04:05:18;;;;;;;13.35;2.17;;;;;;;4.32;98.74;99220.53;4896105;29;20501;-87
2021/12/08 04:07:48;;;;;;;8.75;2.20;;;;;;;3.83;98.99;99158.41;4896864;29;20151;-87
2021/12/08 04:10:20;;;;;;;8.90;2.20;;;;;;;3.93;99.22;99176.75;4896958;29;20048;-87
2021/12/08 04:12:49;;;;;;;7.82;2.38;;;;;;;4.24;99.18;99228.81;4896944;29;20065;-87
2021/12/08 04:15:15;;;;;;;10.32;1.95;;;;;;;3.93;99.58;99174.88;4896620;29;20033;-87
2021/12/08 04:17:46;;;;;;;8.98;2.60;;;;;;;4.22;98.57;99218.31;4865671;29;20040;-87
2021/12/08 04:20:27;;;;;;;7.63;2.22;;;;;;;3.72;98.88;99134.91;4896273;29;20509;-87
2021/12/08 04:22:55;;;;;;;12.05;2.28;;;;;;;3.90;98.95;99171.78;4897507;29;20471;-87
2021/12/08 04:25:29;;;;;;;8.40;2.30;;;;;;;4.07;99.25;99212.41;4881100;29;20063;-87
2021/12/08 04:28:00;;;;;;;9.52;2.20;;;;;;;3.80;99.61;99174.94;4896301;29;20479;-86
2021/12/08 04:30:47;;;;;;;7.65;1.95;;;;;;;3.73;98.83;99155.34;4896144;29;20052;-87
2021/12/08 04:33:14;;;;;;;6.95;2.28;;;;;;;4.18;98.33;99238.59;4896228;29;20032;-87
2021/12/08 04:35:41;;;;;;;11.90;2.30;;;;;;;4.17;98.98;99247.66;4896405;29;20371;-87
2021/12/08 04:38:13;;;;;;;8.20;2.17;;;;;;;3.67;99.13;99155.16;4895646;29;20043;-87
2021/12/08 04:41:03;;;;;;;10.98;2.55;;;;;;;4.04;99.43;99235.94;4896109;29;20096;-87
2021/12/08 04:43:42;;;;;;;7.70;1.63;;;;;;;4.16;97.70;99238.78;4896301;29;20032;-87
2021/12/08 04:46:53;;;;;;;12.13;2.03;;;;;;;4.05;96.79;99212.59;4882515;29;20032;-87
2021/12/08 04:50:09;;;;;;;9.30;2.10;;;;;;;3.41;96.92;99115.03;4896995;29;20040;-87
2021/12/08 04:52:27;;;;;;;8.00;2.33;;;;;;;4.04;96.60;99230.59;4904206;29;20056;-86
2021/12/08 05:03:50;;;;;;;9.02;1.85;;;;;;;3.96;95.82;99240.72;4916206;29;20040;-87
2021/12/08 05:06:37;;;;;;;7.53;2.05;;;;;;;3.44;95.39;99152.97;4899104;29;20127;-87
2021/12/08 05:09:09;;;;;;;10.55;2.20;;;;;;;3.85;94.64;99224.25;4899155;29;20126;-87
2021/12/08 05:11:38;;;;;;;6.80;2.05;;;;;;;3.87;94.67;99215.97;4916144;29;20107;-87
2021/12/08 05:14:15;;;;;;;14.05;2.72;;;;;;;3.63;94.53;99171.88;4898748;29;20036;-87
2021/12/08 05:16:44;;;;;;;12.32;2.00;;;;;;;3.83;93.74;99188.75;4899115;29;20553;-87
2021/12/08 05:19:13;;;;;;;15.63;2.30;;;;;;;3.72;93.67;99157.22;4898916;29;20047;-87
2021/12/08 05:21:43;;;;;;;10.98;2.10;;;;;;;4.38;92.42;99263.47;4899253;29;20047;-87
2021/12/08 05:24:14;;;;;;;10.38;2.10;;;;;;;3.98;92.26;99195.72;4898977;29;20040;-87
2021/12/08 05:26:50;;;;;;;7.50;1.90;;;;;;;4.17;91.68;99226.19;4900011;29;20047;-86
2021/12/08 05:29:25;;;;;;;8.73;2.03;;;;;;;3.93;92.21;99192.84;4899040;29;20401;-86
2021/12/08 05:31:52;;;;;;;12.43;2.25;;;;;;;4.34;92.27;99273.00;4898639;29;20061;-86
2021/12/08 05:34:19;;;;;;;10.52;1.90;;;;;;;4.23;92.25;99246.81;4899182;29;20038;-87
2021/12/08 05:36:45;;;;;;;8.18;1.92;;;;;;;3.98;91.92;99211.81;4899208;29;20036;-86
2021/12/08 05:39:20;;;;;;;9.00;2.00;;;;;;;4.22;92.74;99258.56;4915978;29;20060;-86
2021/12/08 05:41:47;;;;;;;14.02;2.60;;;;;;;4.30;91.87;99282.50;4915622;29;20032;-87
2021/12/08 05:44:14;;;;;;;10.07;2.15;;;;;;;4.42;91.90;99287.22;4898857;29;20047;-87
2021/12/08 05:46:42;;;;;;;8.95;2.30;;;;;;;4.08;91.80;99238.22;4898739;29;20036;-87
2021/12/08 05:49:13;;;;;;;12.48;2.40;;;;;;;3.97;91.31;99231.63;4898062;29;20036;-87
2021/12/08 05:51:42;;;;;;;11.40;2.33;;;;;;;4.20;91.58;99263.34;4898731;29;20042;-87
2021/12/08 05:54:17;;;;;;;11.95;2.00;;;;;;;4.02;91.31;99232.63;4885271;29;20856;-87
2021/12/08 05:56:45;;;;;;;15.82;2.35;;;;;;;4.41;91.76;99291.75;4902260;29;20397;-87
2021/12/08 05:59:11;;;;;;;14.02;2.28;;;;;;;4.14;91.40;99256.97;4918909;29;20096;-87
2021/12/08 06:01:42;;;;;;;12.27;2.10;;;;;;;3.81;92.04;99217.66;4902137;29;20500;-87
2021/12/08 06:04:11;;;;;;;14.25;2.65;;;;;;;4.11;92.22;99276.19;4919088;29;20079;-87
2021/12/08 06:06:37;;;;;;;8.93;1.92;;;;;;;4.31;91.68;99297.59;4901698;29;20036;-87
2021/12/08 06:09:07;;;;;;;11.05;2.20;;;;;;;4.07;92.11;99282.19;4901849;29;20478;-87
2021/12/08 06:11:33;;;;;;;11.25;2.22;;;;;;;4.24;91.73;99314.75;4901950;29;20109;-87
2021/12/08 06:14:00;;;;;;;14.55;2.60;;;;;;;4.14;91.82;99299.91;4901909;29;20040;-87
2021/12/08 06:16:30;;;;;;;14.07;2.72;;;;;;;4.21;91.90;99313.31;4886188;29;20043;-87
2021/12/08 06:18:56;;;;;;;15.07;2.85;;;;;;;4.11;92.18;99304.88;4901738;29;20595;-87
2021/12/08 06:21:24;;;;;;;12.35;2.35;;;;;;;4.19;91.58;99320.75;4886138;29;20043;-87
2021/12/08 06:23:51;;;;;;;11.93;2.88;;;;;;;4.11;92.24;99321.00;4901119;29;20058;-87
2021/12/08 06:26:20;;;;;;;10.60;2.60;;;;;;;4.00;91.55;99291.09;4886009;29;20044;-87
2021/12/08 06:28:46;;;;;;;12.32;2.75;;;;;;;4.07;92.30;99325.94;4901562;29;20028;-86
2021/12/08 06:31:15;;;;;;;13.98;2.55;;;;;;;4.05;91.84;99338.75;4918694;29;20111;-88
2021/12/08 06:33:41;;;;;;;15.00;2.90;;;;;;;4.16;89.52;99323.84;4901801;29;20473;-89
2021/12/08 06:36:15;;;;;;;11.75;2.60;;;;;;;3.53;90.80;99225.97;4901641;29;20039;-89
2021/12/08 06:38:42;;;;;;;13.27;2.50;;;;;;;3.65;91.21;99277.94;4901256;29;20111;-89
2021/12/08 06:41:16;;;;;;;13.98;2.85;;;;;;;3.42;91.61;99245.38;4885532;29;20044;-89
2021/12/08 06:44:04;;;;;;;15.43;2.83;;;;;;;3.90;91.58;99335.47;4901207;29;20067;-89
2021/12/08 06:46:31;;;;;;;13.88;3.00;;;;;;;3.65;90.69;99280.63;4901431;29;20036;-89
2021/12/08 06:48:59;;;;;;;10.73;2.60;;;;;;;3.32;91.05;99243.94;4901385;29;20107;-89
2021/12/08 06:51:32;;;;;;;12.50;2.50;;;;;;;3.15;91.45;99238.16;4901116;29;20549;-88
2021/12/08 06:54:07;;;;;;;13.70;2.30;;;;;;;3.22;91.43;99246.22;4900872;29;20048;-89
2021/12/08 06:56:40;;;;;;;12.75;2.60;;;;;;;3.11;91.46;99239.59;4902643;29;20091;-91
2021/12/08 06:59:34;;;;;;;11.20;2.80;;;;;;;3.03;92.36;99252.38;4902612;29;20119;-92
2021/12/08 07:02:11;;;;;;;10.50;2.30;;;;;;;3.03;91.92;99247.00;4897763;29;20052;-91
2021/12/08 07:05:12;;;;;;;10.25;2.65;;;;;;;3.42;91.78;99309.72;4901458;29;20466;-89
2021/12/08 07:07:37;;;;;;;12.65;3.00;;;;;;;3.54;92.79;99350.97;4918015;29;20036;-89
2021/12/08 07:10:28;;;;;;;15.68;2.40;;;;;;;2.94;92.89;99279.38;4886112;29;20454;-90
2021/12/08 07:13:09;;;;;;;12.50;2.55;;;;;;;3.38;93.32;99356.75;4901394;29;20125;-90
2021/12/08 07:15:52;;;;;;;16.02;2.40;;;;;;;3.29;92.49;99334.66;4903325;29;20095;-91
2021/12/08 07:18:39;;;;;;;15.93;2.97;;;;;;;2.89;93.00;99292.53;4902767;29;20040;-91
2021/12/08 07:21:12;;;;;;;14.27;2.70;;;;;;;2.99;91.96;99294.84;4897303;29;20275;-91
2021/12/08 07:23:49;;;;;;;13.88;2.92;;;;;;;3.27;92.42;99364.34;4909685;29;20119;-91
2021/12/08 07:26:43;;;;;;;13.38;2.67;;;;;;;2.70;92.67;99283.47;4882701;29;20036;-92
2021/12/08 07:29:21;;;;;;;13.18;2.53;;;;;;;2.66;93.01;99298.28;4902653;29;20477;-91
2021/12/08 07:32:01;;;;;;;11.68;2.50;;;;;;;2.70;92.79;99302.22;4918848;29;20043;-91
2021/12/08 07:34:31;;;;;;;13.20;2.90;;;;;;;2.56;92.88;99289.81;4920015;29;20064;-92
2021/12/08 07:37:31;;;;;;;11.48;2.22;;;;;;;2.66;93.21;99324.22;4920024;29;20114;-91
2021/12/08 07:40:06;;;;;;;15.85;3.05;;;;;;;3.06;92.92;99388.66;4919964;29;20079;-92
2021/12/08 07:42:44;;;;;;;17.70;2.90;;;;;;;2.65;92.82;99323.41;4919456;29;20027;-92
2021/12/08 07:46:03;;;;;;;13.18;2.20;;;;;;;2.73;92.63;99331.28;4920409;29;20050;-91
2021/12/08 07:48:35;;;;;;;13.93;2.28;;;;;;;2.79;92.53;99332.28;4917050;29;20032;-90
2021/12/08 07:51:21;;;;;;;11.02;2.47;;;;;;;3.45;92.81;99441.50;4918870;29;20043;-91
2021/12/08 07:54:34;;;;;;;10.57;1.88;;;;;;;3.57;92.14;99428.31;4915930;29;20525;-92
2021/12/08 07:57:34;;;;;;;8.30;2.05;;;;;;;2.93;92.15;99339.34;4917249;29;20040;-94
2021/12/08 08:00:30;;;;;;;9.25;2.15;;;;;;;3.23;91.28;99351.56;4912526;29;20036;-93
2021/12/08 08:03:32;;;;;;;8.90;1.98;;;;;;;3.14;90.31;99340.22;4917299;29;20031;-93
2021/12/08 08:06:32;;;;;;;11.70;2.50;;;;;;;3.14;90.28;99327.66;4905612;29;20148;-93
2021/12/08 08:09:13;;;;;;;;;;;;;;;;;;;;;
2021/12/08 08:11:48;;;;;;;11.15;2.88;;;;;;;3.18;89.40;99336.09;4918609;29;20050;-93
2021/12/08 08:14:21;;;;;;;12.45;2.22;;;;;;;3.24;89.40;99342.50;4919004;29;20034;-92
2021/12/08 08:16:56;;;;;;;11.52;2.55;;;;;;;3.54;89.38;99395.75;4916031;29;20038;-92
2021/12/08 08:19:58;;;;;;;7.53;2.35;;;;;;;3.31;88.46;99352.19;4904063;29;20382;-93
2021/12/08 08:22:40;;;;;;;6.13;2.13;;;;;;;3.30;87.66;99337.13;4910130;29;20092;-91
2021/12/08 08:25:15;;;;;;;7.03;2.08;;;;;;;3.42;87.61;99344.59;4916508;29;20043;-93
2021/12/08 08:28:02;;;;;;;13.05;2.10;;;;;;;3.63;87.67;99391.81;4916653;29;20445;-93
2021/12/08 08:30:56;;;;;;;10.02;2.50;;;;;;;3.41;87.81;99351.81;4917066;29;20553;-93
2021/12/08 08:33:33;;;;;;;13.35;2.35;;;;;;;3.85;86.87;99408.53;4889210;29;20040;-93
2021/12/08 08:36:19;;;;;;;12.60;2.55;;;;;;;3.52;87.39;99339.63;4917190;29;20028;-93
2021/12/08 08:39:15;;;;;;;7.97;2.03;;;;;;;3.50;86.93;99323.75;4916443;29;20068;-93
2021/12/08 08:41:57;;;;;;;11.90;2.88;;;;;;;3.54;86.18;99316.09;4917069;29;20055;-93
2021/12/08 08:48:11;;;;;;;;;;;;;;;4.15;87.03;99414.31;4922234;29;20332;-94
2021/12/08 08:51:30;;;;;;;9.13;2.45;;;;;;;3.58;86.02;99309.31;4916186;29;20317;-93
2021/12/08 08:54:02;;;;;;;7.05;2.05;;;;;;;3.38;86.11;99289.72;4899539;29;20060;-94
2021/12/08 09:00:30;;;;;;;8.55;2.47;;;;;;;3.72;85.96;99379.88;4888774;29;20071;-93
2021/12/08 09:03:03;;;;;;;12.57;2.45;;;;;;;3.39;86.26;99336.94;4914898;29;20481;-87
2021/12/08 09:05:36;;;;;;;9.65;2.30;;;;;;;3.41;85.62;99325.00;4896385;29;20115;-88
2021/12/08 09:08:05;;;;;;;6.65;2.08;;;;;;;3.87;85.55;99395.75;4895748;29;20029;-89
2021/12/08 09:10:39;;;;;;;9.02;2.53;;;;;;;3.47;85.28;99337.56;4884494;29;20033;-89
2021/12/08 09:13:13;;;;;;;11.50;2.50;;;;;;;3.65;85.68;99365.63;4896132;29;20036;-88
2021/12/08 09:15:43;;;;;;;10.38;2.30;;;;;;;4.01;86.61;99426.91;4886658;29;20033;-87
2021/12/08 09:18:41;;;;;;;11.73;2.40;;;;;;;3.50;86.07;99341.72;4877287;29;20035;-88
2021/12/08 09:21:17;;;;;;;11.55;2.95;;;;;;;4.01;86.61;99432.28;4877106;29;20068;-90
2021/12/08 09:24:07;;;;;;;6.68;1.92;;;;;;;3.73;86.70;99384.19;4881798;29;20028;-89
2021/12/08 09:26:37;;;;;;;9.63;2.20;;;;;;;3.83;85.75;99407.94;4896192;29;20040;-89
2021/12/08 09:29:19;;;;;;;10.15;2.20;;;;;;;3.84;86.30;99421.16;4898897;29;20040;-89
2021/12/08 09:31:53;;;;;;;6.50;1.83;;;;;;;3.49;86.02;99381.09;4899264;29;20044;-88
2021/12/08 09:34:23;;;;;;;9.07;2.05;;;;;;;3.62;85.42;99387.50;4899692;29;20032;-89
2021/12/08 09:36:55;;;;;;;8.35;2.28;;;;;;;4.26;84.48;99460.34;4897935;29;20048;-89
2021/12/08 09:39:24;;;;;;;8.65;2.22;;;;;;;4.45;84.10;99464.88;4880719;29;20037;-89
2021/12/08 09:41:59;;;;;;;10.23;2.35;;;;;;;3.94;84.33;99374.28;4880361;29;20405;-88
2021/12/08 09:44:36;;;;;;;13.65;2.28;;;;;;;4.02;83.21;99382.94;4897968;29;20099;-87
2021/12/08 09:47:16;;;;;;;8.38;2.30;;;;;;;4.09;83.77;99372.19;4901248;29;20044;-89
2021/12/08 09:49:47;;;;;;;9.98;2.50;;;;;;;4.00;84.11;99376.97;4899456;29;20395;-90
2021/12/08 09:52:19;;;;;;;12.80;2.65;;;;;;;4.29;84.15;99419.66;4899625;29;20048;-88
2021/12/08 09:54:45;;;;;;;8.70;1.77;;;;;;;4.51;84.99;99453.28;4887537;29;20143;-89
2021/12/08 09:57:15;;;;;;;6.50;2.13;;;;;;;4.27;83.66;99406.44;4883971;29;20348;-89
2021/12/08 09:59:46;;;;;;;12.70;2.25;;;;;;;4.29;84.25;99414.28;4898966;29;20032;-89
2021/12/08 10:02:25;;;;;;;8.47;2.20;;;;;;;3.94;83.95;99356.34;4914623;29;20028;-87
2021/12/08 10:04:54;;;;;;;10.40;1.95;;;;;;;4.29;83.02;99396.31;4908456;29;20679;-87
2021/12/08 10:07:20;;;;;;;6.80;1.98;;;;;;;4.62;82.36;99432.19;4899220;29;20076;-87
2021/12/08 10:09:49;;;;;;;12.57;2.38;;;;;;;4.09;82.20;99347.19;4900086;29;20079;-87
2021/12/08 10:12:17;;;;;;;7.45;1.88;;;;;;;4.44;82.20;99404.13;4883249;29;20040;-85
2021/12/08 10:14:46;;;;;;;6.85;1.88;;;;;;;4.68;82.33;99437.53;4899948;29;20047;-88
2021/12/08 10:17:13;;;;;;;10.35;2.63;;;;;;;4.64;82.18;99416.69;4883250;29;20411;-88
2021/12/08 10:19:38;;;;;;;10.40;2.60;;;;;;;4.37;82.28;99352.28;4914319;29;20060;-88
2021/12/08 10:22:17;;;;;;;7.95;1.90;;;;;;;4.60;81.19;99402.84;4914433;29;20076;-88
2021/12/08 10:25:02;;;;;;;6.28;2.08;;;;;;;4.42;81.97;99359.72;4882530;29;20036;-88
2021/12/08 10:27:28;;;;;;;6.55;1.52;;;;;;;4.51;81.54;99353.09;4914121;29;20032;-88
2021/12/08 10:29:57;;;;;;;6.70;1.92;;;;;;;4.79;81.52;99392.25;4898441;29;20083;-88
2021/12/08 10:32:22;;;;;;;6.18;2.00;;;;;;;4.45;81.08;99344.00;4899543;29;20040;-88
2021/12/08 10:35:02;;;;;;;8.25;1.80;;;;;;;4.55;81.12;99352.44;4867007;29;20036;-88
2021/12/08 10:37:28;;;;;;;7.93;2.00;;;;;;;4.34;81.01;99317.81;4869062;29;20037;-88
2021/12/08 10:39:56;;;;;;;8.82;1.63;;;;;;;4.93;81.16;99388.44;4898222;29;20047;-88
2021/12/08 10:42:28;;;;;;;7.30;2.20;;;;;;;4.96;80.49;99382.66;4898829;29;20040;-88
2021/12/08 10:47:38;;;;;;;7.00;2.00;;;;;;;4.45;80.47;99301.03;4899105;29;20044;-88
2021/12/08 10:56:19;;;;;;;3.90;1.70;;;;;;;4.84;80.88;99344.03;4899312;29;20052;-88
2021/12/08 10:58:49;;;;;;;7.35;2.00;;;;;;;4.83;81.12;99350.47;4913371;29;20028;-88
2021/12/08 11:01:24;;;;;;;5.85;1.80;;;;;;;5.05;80.64;99385.94;4897096;29;20088;-88
2021/12/08 11:03:58;;;;;;;7.05;2.13;;;;;;;4.86;80.82;99350.03;4898746;29;20028;-88
2021/12/08 11:06:34;;;;;;;7.53;1.92;;;;;;;5.05;81.50;99397.50;4898549;29;20028;-88
2021/12/08 11:09:01;;;;;;;7.97;2.17;;;;;;;5.10;80.56;99375.34;4913244;29;20028;-88
2021/12/08 11:11:32;;;;;;;6.22;2.03;;;;;;;5.54;79.91;99419.34;4898479;29;20060;-88
2021/12/08 11:14:08;;;;;;;11.02;2.40;;;;;;;5.64;78.54;99394.66;4881836;29;20032;-89
2021/12/08 11:16:36;;;;;;;8.82;2.50;;;;;;;5.88;78.77;99401.06;4898005;29;20041;-88
2021/12/08 11:19:20;;;;;;;7.97;1.83;;;;;;;6.29;76.28;99434.72;4898546;29;20028;-90
2021/12/08 11:21:49;;;;;;;7.20;1.80;;;;;;;5.92;75.44;99364.59;4913158;29;20367;-87
2021/12/08 11:24:31;;;;;;;6.53;1.77;;;;;;;6.37;74.83;99427.41;4881378;29;20479;-88
2021/12/08 11:26:58;;;;;;;6.00;1.88;;;;;;;6.12;73.71;99383.28;4898432;29;20039;-88
2021/12/08 11:29:26;;;;;;;6.78;2.00;;;;;;;6.20;74.63;99400.19;4913722;29;20060;-87
2021/12/08 11:32:07;;;;;;;3.03;1.40;;;;;;;6.34;74.80;99403.59;4881323;29;20149;-88
2021/12/08 11:34:41;;;;;;;6.85;1.95;;;;;;;6.30;74.51;99387.03;4880836;29;20037;-88
2021/12/08 11:37:17;;;;;;;8.82;2.03;;;;;;;6.57;73.75;99421.78;4881574;29;20139;-88
2021/12/08 11:39:48;;;;;;;7.47;1.70;;;;;;;6.29;73.87;99412.34;4898486;29;20044;-87
2021/12/08 11:42:31;;;;;;;9.18;2.08;;;;;;;6.17;74.50;99403.34;4897639;29;20049;-87
2021/12/08 11:45:00;;;;;;;7.72;1.85;;;;;;;6.38;73.57;99412.84;4881171;29;20482;-88
2021/12/08 11:47:31;;;;;;;8.90;1.83;;;;;;;6.79;73.42;99449.97;4897851;29;20039;-88
2021/12/08 11:50:00;;;;;;;9.23;2.20;;;;;;;7.06;72.72;99457.72;4897995;29;20059;-88
2021/12/08 11:52:32;;;;;;;7.10;1.90;;;;;;;6.78;72.68;99409.75;4896610;29;20040;-87
2021/12/08 11:55:01;;;;;;;;;;;;;;;7.22;73.62;99493.22;4912799;29;20056;-88
2021/12/08 11:57:36;;;;;;;10.98;2.17;;;;;;;7.10;72.83;99495.84;4912273;29;19920;-88
2021/12/08 12:00:28;;;;;;;10.23;2.13;;;;;;;7.42;72.46;99498.38;4881033;29;20024;-88
2021/12/08 12:03:00;;;;;;;6.72;1.90;;;;;;;7.36;70.35;99471.22;4880914;29;20033;-86
2021/12/08 12:05:34;;;;;;;5.15;1.90;;;;;;;7.13;71.19;99453.06;4897815;29;20033;-88
2021/12/08 12:08:02;;;;;;;9.25;1.95;;;;;;;6.94;70.76;99456.81;4911384;29;20054;-87
2021/12/08 12:10:39;;;;;;;7.43;2.33;;;;;;;6.91;71.83;99489.63;4911969;29;20041;-88
2021/12/08 12:16:18;;;;;;;8.15;2.33;;;;;;;6.65;73.49;99526.59;4887437;29;20055;-88
2021/12/08 12:18:44;;;;;;;6.85;1.75;;;;;;;6.10;73.74;99463.47;4911759;29;20037;-88
2021/12/08 12:21:30;;;;;;;11.63;2.17;;;;;;;5.85;73.85;99460.75;4896065;29;20029;-86
2021/12/08 12:24:30;;;;;;;7.80;2.03;;;;;;;5.96;75.38;99486.97;4897077;29;20024;-87
2021/12/08 12:26:56;;;;;;;5.95;1.83;;;;;;;6.27;75.91;99549.91;4913146;29;20107;-88
2021/12/08 12:29:36;;;;;;;7.55;2.10;;;;;;;6.25;75.09;99551.22;4911237;29;20438;-87
2021/12/08 12:32:17;;;;;;;7.40;1.90;;;;;;;5.90;75.55;99525.50;4914580;29;20367;-87
2021/12/08 12:34:43;;;;;;;6.68;1.83;;;;;;;6.05;75.79;99565.59;4915564;29;20031;-87
2021/12/08 12:37:14;;;;;;;6.55;1.90;;;;;;;6.01;76.65;99563.56;4914147;29;20028;-87
2021/12/08 12:39:57;;;;;;;4.83;2.07;;;;;;;5.67;77.22;99509.94;4915742;29;20040;-87
2021/12/08 12:42:41;;;;;;;7.65;2.00;;;;;;;5.99;76.56;99558.41;4897937;29;20291;-87
2021/12/08 12:45:11;;;;;;;6.88;2.08;;;;;;;5.77;75.65;99533.66;4915446;29;20032;-87
2021/12/08 12:47:36;;;;;;;8.77;2.28;;;;;;;5.60;76.27;99507.25;4898469;29;20048;-87
2021/12/08 12:50:20;;;;;;;5.88;1.80;;;;;;;5.92;77.12;99571.06;4913869;29;20036;-88
2021/12/08 12:52:50;;;;;;;5.97;2.05;;;;;;;5.55;77.07;99511.63;4913985;29;20064;-87
2021/12/08 12:55:19;;;;;;;6.18;1.85;;;;;;;5.56;76.17;99518.66;4913979;29;20081;-87